Latest Coastal Weather Observations for Shark Bay Airport

IDW60701

Issued at 9:03 am WST Saturday 10 December 2016 (issued every 10 minutes, with the page automatically refreshed every 10 minutes)

About coastal observations | Map of coastal stations | Coastal observations for WA | Marine services | Other Formats
Station Details ID: 006105 Name: SHARK BAY AIRPORT Lat: -25.89 Lon: 113.58 Height: 33.8 m
Data from the previous 72 hours. | See also: Recent months at Shark Bay Airport
Date/Time
WST
Temp
°C
Wind Pressure Rain since
9am
mm
Weather Cloud Vis
km
Sea
Height
m
Swell
Dir  Spd
kts
Gust
kts
hPa Trend Height
m
Period
s
Dir
10/09:00am 31.0 E 6 7 1010.3 - - - - - - - - -
10/08:30am 29.7 E 6 9 1010.4 - 0.0 - - - - - - -
10/08:00am 28.5 E 7 9 1010.5 - 0.0 - - - - - - -
10/07:30am 27.4 E 7 10 1010.6 - 0.0 - - - - - - -
10/07:00am 26.0 E 7 10 1010.2 - 0.0 - - - - - - -
10/06:30am 24.2 ESE 1 5 1009.9 - 0.0 - - - - - - -
10/06:00am 21.7 SSE 5 5 1009.6 - 0.0 - - - - - - -
10/05:30am 20.9 SE 4 5 1009.5 - 0.0 - - - - - - -
10/05:00am 21.0 SE 4 5 1009.3 - 0.0 - - - - - - -
10/04:30am 21.5 SSE 4 5 1009.1 - 0.0 - - - - - - -
10/04:00am 22.5 S 5 7 1008.8 - 0.0 - - - - - - -
10/03:30am 23.0 SSW 8 11 1008.7 - 0.0 - - - - - - -
10/03:00am 22.9 SSW 9 11 1008.7 - 0.0 - - - - - - -
10/02:30am 22.3 WSW 8 9 1008.9 - 0.0 - - - - - - -
10/02:00am 22.7 SW 6 8 1009.1 - 0.0 - - - - - - -
10/01:30am 22.3 SW 8 10 1009.4 - 0.0 - - - - - - -
10/01:00am 22.6 SW 11 14 1009.2 - 0.0 - - - - - - -
10/12:30am 22.9 SW 8 11 1010.1 - 0.0 - - - - - - -
10/12:00am 22.8 SW 9 11 1010.3 - 0.0 - - - - - - -
 
Date/Time
WST
Temp
°C
Wind Pressure Rain since
9am
mm
Weather Cloud Vis
km
Sea
Height
m
Swell
Dir  Spd
kts
Gust
kts
hPa Trend Height
m
Period
s
Dir
09/11:30pm 22.2 SSW 7 9 1010.7 - 0.0 - - - - - - -
09/11:00pm 22.5 SSW 7 10 1010.7 - 0.0 - - - - - - -
09/10:30pm 22.8 SW 6 10 1010.5 - 0.0 - - - - - - -
09/10:00pm 23.2 S 10 13 1010.1 - 0.0 - - - - - - -
09/09:30pm 23.4 SSW 10 14 1009.7 - 0.0 - - - - - - -
09/09:00pm 23.8 S 11 15 1009.5 - 0.0 - - - - - - -
09/08:30pm 24.1 SSW 13 18 1008.7 - 0.0 - - - - - - -
09/08:00pm 24.6 SSW 15 21 1008.4 - 0.0 - - - - - - -
09/07:30pm 25.5 SSW 14 19 1008.1 - 0.0 - - - - - - -
09/07:00pm 26.6 SSW 16 23 1007.8 - 0.0 - - - - - - -
09/06:30pm 28.0 SSW 15 22 1007.5 - 0.0 - - - - - - -
09/06:00pm 29.6 SSW 17 22 1007.0 - 0.0 - - - - - - -
09/05:30pm 30.9 SSW 17 23 1006.7 - 0.0 - - - - - - -
09/05:00pm 31.6 SSW 16 22 1006.5 - 0.0 - - - - - - -
09/04:30pm 31.6 SW 16 21 1006.5 - 0.0 - - - - - - -
09/04:00pm 31.6 SSW 17 22 1006.7 - 0.0 - - - - - - -
09/03:30pm 32.6 SW 16 21 1006.9 - 0.0 - - - - - - -
09/03:00pm 33.1 SW 19 24 1007.2 - 0.0 - - - - - - -
09/02:30pm 32.9 SW 17 22 1007.5 - 0.0 - - - - - - -
09/02:00pm 33.7 SW 15 19 1007.7 - 0.0 - - - - - - -
09/01:30pm 36.1 SW 15 19 1007.8 - 0.0 - - - - - - -
09/01:00pm 36.2 SW 15 19 1007.9 - 0.0 - - - - - - -
09/12:30pm 36.9 SW 13 17 1008.1 - 0.0 - - - - - - -
09/12:00pm 35.7 SW 13 17 1008.5 - 0.0 - - - - - - -
09/11:30am 34.7 SW 13 17 1008.7 - 0.0 - - - - - - -
09/11:00am 33.8 SSW 13 16 1009.1 - 0.0 - - - - - - -
09/10:30am 32.4 SW 11 15 1009.4 - 0.0 - - - - - - -
09/10:00am 31.7 SSW 8 13 1009.6 - 0.0 - - - - - - -
09/09:30am 32.4 SSE 7 10 1009.7 - 0.0 - - - - - - -
09/09:00am 30.9 S 9 13 1009.9 - 0.0 - - - - - - -
09/08:30am 29.3 S 10 14 1009.8 - 0.0 - - - - - - -
09/08:00am 27.1 S 11 14 1009.9 - 0.0 - - - - - - -
09/07:30am 25.6 S 10 14 1009.7 - 0.0 - - - - - - -
09/07:00am 23.8 S 11 15 1009.6 - 0.0 - - - - - - -
09/06:30am 22.4 S 11 17 1009.4 - 0.0 - - - - - - -
09/06:00am 21.2 SSW 10 14 1009.2 - 0.0 - - - - - - -
09/05:30am 20.3 SSW 9 11 1009.0 - 0.0 - - - - - - -
09/05:00am 20.8 S 10 14 1008.9 - 0.0 - - - - - - -
09/04:30am 20.9 S 10 13 1008.8 - 0.0 - - - - - - -
09/04:00am 21.1 S 10 14 1008.6 - 0.0 - - - - - - -
09/03:30am 21.3 S 10 15 1008.5 - 0.0 - - - - - - -
09/03:00am 21.4 S 10 15 1008.4 - 0.0 - - - - - - -
09/02:30am 21.7 SSW 10 14 1008.5 - 0.0 - - - - - - -
09/02:00am 22.5 S 11 16 1008.6 - 0.0 - - - - - - -
09/01:30am 22.9 S 13 17 1008.6 - 0.0 - - - - - - -
09/01:00am 23.2 S 14 19 1008.6 - 0.0 - - - - - - -
09/12:30am 23.1 S 14 20 1008.8 - 0.0 - - - - - - -
09/12:00am 23.2 S 14 20 1009.1 - 0.0 - - - - - - -
 
Date/Time
WST
Temp
°C
Wind Pressure Rain since
9am
mm
Weather Cloud Vis
km
Sea
Height
m
Swell
Dir  Spd
kts
Gust
kts
hPa Trend Height
m
Period
s
Dir
08/11:30pm 23.1 S 14 20 1009.2 - 0.0 - - - - - - -
08/11:00pm 23.3 S 15 21 1009.5 - 0.0 - - - - - - -
08/10:30pm 23.4 S 16 21 1009.7 - 0.0 - - - - - - -
08/10:00pm 23.5 S 15 22 1009.8 - 0.0 - - - - - - -
08/09:30pm 23.8 S 15 22 1009.8 - 0.0 - - - - - - -
08/09:00pm 24.1 S 16 21 1009.8 - 0.0 - - - - - - -
08/08:30pm 24.7 SSW 16 22 1009.9 - 0.0 - - - - - - -
08/08:00pm 25.1 SSW 15 20 1009.9 - 0.0 - - - - - - -
08/07:30pm 25.6 S 11 15 1009.9 - 0.0 - - - - - - -
08/07:00pm 27.3 S 12 19 1009.5 - 0.0 - - - - - - -
08/06:30pm 29.5 SSW 16 22 1009.1 - 0.0 - - - - - - -
08/06:00pm 30.5 SSW 15 21 1008.7 - 0.0 - - - - - - -
08/05:30pm 31.9 SSW 17 23 1008.4 - 0.0 - - - - - - -
08/05:00pm 32.9 SSW 15 21 1008.3 - 0.0 - - - - - - -
08/04:30pm 31.9 SSW 14 18 1008.3 - 0.0 - - - - - - -
08/04:00pm 32.8 SSW 17 22 1008.3 - 0.0 - - - - - - -
08/03:30pm 33.5 SW 15 19 1008.4 - 0.0 - - - - - - -
08/03:00pm 35.1 SW 13 18 1008.4 - 0.0 - - - - - - -
08/02:30pm 36.3 SW 15 18 1008.5 - 0.0 - - - - - - -
08/02:00pm 35.8 SW 13 17 1008.7 - 0.0 - - - - - - -
08/01:30pm 36.3 SW 11 14 1008.9 - 0.0 - - - - - - -
08/01:00pm 35.8 SW 11 14 1009.2 - 0.0 - - - - - - -
08/12:30pm 35.5 SW 10 14 1009.4 - 0.0 - - - - - - -
08/12:00pm 36.5 SE 7 11 1009.8 - 0.0 - - - - - - -
08/11:30am 35.6 E 7 14 1010.2 - 0.0 - - - - - - -
08/11:00am 34.5 ESE 7 11 1010.8 - 0.0 - - - - - - -
08/10:30am 32.6 ESE 7 13 1011.1 - 0.0 - - - - - - -
08/10:00am 31.6 SE 9 14 1011.5 - 0.0 - - - - - - -
08/09:30am 29.4 SE 9 13 1011.7 - 0.0 - - - - - - -
08/09:00am 28.2 ESE 9 15 1011.8 - 0.0 - - - - - - -
08/08:30am 26.6 SE 9 14 1011.8 - 0.0 - - - - - - -
08/08:00am 24.2 SSE 10 13 1011.8 - 0.0 - - - - - - -
08/07:30am 22.4 SSE 10 14 1011.9 - 0.0 - - - - - - -
08/07:00am 20.5 SSE 10 14 1011.8 - 0.0 - - - - - - -
08/06:30am 19.2 SSE 10 14 1011.9 - 0.0 - - - - - - -
08/06:00am 18.0 SSE 9 13 1012.0 - 0.0 - - - - - - -
08/05:30am 17.4 S 9 12 1011.5 - 0.0 - - - - - - -
08/05:00am 17.6 SSE 8 11 1011.3 - 0.0 - - - - - - -
08/04:30am 17.9 SSE 7 11 1011.4 - 0.0 - - - - - - -
08/04:00am 18.2 SSE 10 15 1010.6 - 0.0 - - - - - - -
08/03:30am 18.4 S 11 16 1010.7 - 0.0 - - - - - - -
08/03:00am 18.6 SSE 12 20 1010.6 - 0.0 - - - - - - -
08/02:30am 18.8 S 12 17 1010.9 - 0.0 - - - - - - -
08/02:00am 18.9 S 11 18 1011.0 - 0.0 - - - - - - -
08/01:30am 19.1 S 11 17 1011.2 - 0.0 - - - - - - -
08/01:00am 19.4 SSE 11 16 1011.4 - 0.0 - - - - - - -
08/12:30am 19.5 S 11 17 1011.6 - 0.0 - - - - - - -
08/12:00am 19.9 SSE 12 18 1011.8 - 0.0 - - - - - - -
 
Date/Time
WST
Temp
°C
Wind Pressure Rain since
9am
mm
Weather Cloud Vis
km
Sea
Height
m
Swell
Dir  Spd
kts
Gust
kts
hPa Trend Height
m
Period
s
Dir
07/11:30pm 20.1 S 13 19 1012.0 - 0.0 - - - - - - -
07/11:00pm 20.2 S 14 19 1012.1 - 0.0 - - - - - - -
07/10:30pm 20.3 S 15 20 1012.2 - 0.0 - - - - - - -
07/10:00pm 20.6 S 15 23 1012.1 - 0.0 - - - - - - -
07/09:30pm 20.5 S 15 22 1011.9 - 0.0 - - - - - - -
07/09:03pm 20.7 S 15 25 1011.8 - 0.0 - - - - - - -
07/09:00pm 20.6 S 16 23 1011.8 - 0.0 - - - - - - -
07/08:30pm 20.9 S 18 26 1011.7 - 0.0 - - - - - - -
07/08:00pm 21.0 S 17 26 1011.6 - 0.0 - - - - - - -
07/07:30pm 21.3 S 19 27 1011.4 - 0.0 - - - - - - -
07/07:00pm 22.0 S 19 27 1011.1 - 0.0 - - - - - - -
07/06:48pm 22.4 S 18 28 1011.1 - 0.0 - - - - - - -
07/06:30pm 23.2 S 18 26 1010.9 - 0.0 - - - - - - -
07/06:15pm 24.1 S 18 28 1010.9 - 0.0 - - - - - - -
07/06:00pm 24.4 S 17 25 1010.7 - 0.0 - - - - - - -
07/05:56pm 24.7 S 17 27 1010.7 - 0.0 - - - - - - -
07/05:30pm 25.7 S 17 26 1010.7 - 0.0 - - - - - - -
07/05:00pm 25.9 S 18 25 1010.6 - 0.0 - - - - - - -
07/04:30pm 27.3 S 19 26 1010.7 - 0.0 - - - - - - -
07/04:00pm 28.3 S 17 25 1010.9 - 0.0 - - - - - - -
07/03:30pm 28.4 S 17 23 1011.3 - 0.0 - - - - - - -
07/03:00pm 28.4 SSW 16 22 1011.6 - 0.0 - - - - - - -
07/02:30pm 29.3 S 15 21 1011.8 - 0.0 - - - - - - -
07/02:00pm 29.6 S 17 22 1012.0 - 0.0 - - - - - - -
07/01:30pm 29.0 S 14 20 1012.3 - 0.0 - - - - - - -
07/01:00pm 28.9 S 15 23 1012.4 - 0.0 - - - - - - -
07/12:30pm 28.7 S 13 20 1012.7 - 0.0 - - - - - - -
07/12:00pm 28.8 S 15 20 1013.1 - 0.0 - - - - - - -
07/11:30am 28.0 SSE 15 23 1013.5 - 0.0 - - - - - - -
07/11:00am 26.6 S 15 22 1013.8 - 0.0 - - - - - - -
07/10:30am 26.0 S 16 22 1014.3 - 0.0 - - - - - - -
07/10:00am 24.6 SSE 16 24 1014.4 - 0.0 - - - - - - -
07/09:30am 23.9 S 18 24 1014.4 - 0.0 - - - - - - -
07/09:20am 23.9 SSE 17 27 1014.7 - 0.0 - - - - - - -

Other Formats:

Comma delimited format used in spreadsheet applications
http://www.bom.gov.au/fwo/IDW60701/IDW60701.95402.axf

JavaScript Object Notation format (JSON) in row-major order
http://www.bom.gov.au/fwo/IDW60701/IDW60701.95402.json